Randolph, VT (05060)

5:34 PM EDT on March 27, 2015 (GMT -0400)
East Bethel | | Change Station
CLOSE
Current Station
Personal Weather Station
Location: Bethel, VT
Elevation: 561 ft
Nearby Weather Stations

Elev 561 ft 43.87 °N, 72.59 °W | Updated 21 minutes ago

Overcast
Overcast
34.9 °F
Feels Like 35 °F
N
0.0
Wind Variable Wind from North
Gusts 0.0 mph

Today
High -- | Low -- °F
--% Chance of Precip.
Yesterday
High -- | Low -- °F
Precip. -- in
6:41 AM 7:11 PM
First Quarter, 56% visible
Pressure 29.79 in
Visibility 10.0 miles
Clouds Few 3100 ft
Overcast 4900 ft
Windchill 35 °F
Dew Point Not available.
Humidity Not available.
Rainfall 0.00 in
Snow Depth Not available.
UV 1 out of 12
Pollen .60 out of 12
Air Quality Not available.
Flu Activity Not available.
METAR KMPV 272051Z AUTO 30008KT 10SM FEW031 OVC049 01/M02 A2975 RMK AO2 PRESRR SLP086 T00111022 53009

More Conditions Fewer Conditions

Pressure 29.79 in
Visibility 10.0 miles
Clouds Few 3100 ft
Overcast 4900 ft
Windchill 35 °F
Dew Point Not available.
Humidity Not available.
Rainfall 0.00 in
Snow Depth Not available.
UV 1 out of 12
Pollen .60 out of 12
Air Quality Not available.
Flu Activity Not available.
METAR KMPV 272051Z AUTO 30008KT 10SM FEW031 OVC049 01/M02 A2975 RMK AO2 PRESRR SLP086 T00111022 53009

More Conditions Fewer Conditions

10-Day Weather Forecast

Almanac

Astronomy

Mar. 27, 2015 Rise Set
Actual Time
Civil Twilight
Nautical Twilight
Astronomical Twilight
Moon
Length of Visible Light
Length of Day
Tomorrow will be .
, % of the Moon is Illuminated

Today's Extremes

State Highs State Lows

Community

WunderPhotos

Upload Photos

1,808,831 photos uploaded!

WunderBlogs® & News

Nearby

Air Quality

  Air Quality AQ Index Pollutant
Not available.

Snow Depth

Station Depth Elevation

Earthquake Activity

City Distance Mag. Time & Date
Minimum magnitude displayed is 2.5.

Coastal Water Temperatures

Place Temperature

Stations

Nearby Weather Stations

Station Location Temp. Windchill Dew Point Humidity Wind Precip. Elev Updated Type